createdAt,value
2022-08-08T00:01:00.128Z,17.1
2022-08-08T00:08:16.435Z,17.3
2022-08-08T00:20:58.725Z,16.8
2022-08-08T00:48:29.163Z,17
2022-08-08T01:16:06.547Z,16.7
2022-08-08T01:41:34.124Z,16.6
2022-08-08T01:55:18.517Z,16.3
2022-08-08T02:02:40.128Z,16.3
2022-08-08T02:08:48.981Z,16.1
2022-08-08T02:14:59.539Z,16.2
2022-08-08T02:27:16.660Z,16.2
2022-08-08T02:58:42.307Z,15.8
2022-08-08T03:21:55.055Z,15.5
2022-08-08T03:28:35.720Z,15.4
2022-08-08T03:34:52.268Z,15.4
2022-08-08T03:40:56.884Z,15.4
2022-08-08T03:48:36.368Z,15
2022-08-08T04:08:58.050Z,14.9
2022-08-08T04:28:40.660Z,14.7
2022-08-08T05:00:43.772Z,15
2022-08-08T05:07:45.381Z,15.4
2022-08-08T05:14:03.432Z,16
2022-08-08T05:26:27.485Z,17.5
2022-08-08T05:38:52.725Z,18.9
2022-08-08T05:44:48.901Z,19.5
2022-08-08T05:52:31.859Z,20
2022-08-08T05:58:32.656Z,24.4
2022-08-08T06:04:54.497Z,26.8
2022-08-08T06:10:52.337Z,28.2
2022-08-08T06:16:46.292Z,25.2
2022-08-08T06:22:44.551Z,20
2022-08-08T06:28:41.238Z,19.2
2022-08-08T06:35:12.553Z,19.4
2022-08-08T06:42:02.584Z,19.2
2022-08-08T06:48:01.597Z,19
2022-08-08T06:53:56.339Z,18.6
2022-08-08T07:00:11.055Z,18.8
2022-08-08T07:06:23.602Z,19
2022-08-08T07:12:20.707Z,19
2022-08-08T07:18:34.969Z,19
2022-08-08T07:24:32.416Z,19.1
2022-08-08T07:30:26.589Z,19.1
2022-08-08T07:36:18.903Z,18.9
2022-08-08T07:42:18.668Z,19.1
2022-08-08T07:48:23.684Z,19.2
2022-08-08T07:54:24.239Z,19.5
2022-08-08T08:00:17.077Z,19.8
2022-08-08T08:06:12.629Z,19.8
2022-08-08T08:12:11.375Z,20
2022-08-08T08:18:37.454Z,20.1
2022-08-08T08:24:46.225Z,20.3
2022-08-08T08:30:41.554Z,20.4
2022-08-08T08:36:38.648Z,20.4
2022-08-08T08:42:40.884Z,20.5
2022-08-08T08:48:36.908Z,20.8
2022-08-08T08:54:38.490Z,20.9
2022-08-08T09:01:03.069Z,21.1
2022-08-08T09:07:02.828Z,21.2
2022-08-08T09:13:03.831Z,21.5
2022-08-08T09:18:57.415Z,21.5
2022-08-08T09:24:49.427Z,21.8
2022-08-08T09:30:46.170Z,22.1
2022-08-08T09:36:51.553Z,21.9
2022-08-08T09:44:05.858Z,22.3
2022-08-08T09:50:19.772Z,22.5
2022-08-08T09:56:33.919Z,22.5
2022-08-08T10:02:34.209Z,22.9
2022-08-08T10:08:33.254Z,23
2022-08-08T10:14:35.634Z,23.2
2022-08-08T10:20:40.671Z,23.4
2022-08-08T10:27:34.110Z,23.5
2022-08-08T10:33:38.090Z,23.9
2022-08-08T10:40:10.998Z,23.7
2022-08-08T10:46:26.018Z,24
2022-08-08T10:52:25.662Z,23.8
2022-08-08T10:58:22.587Z,24.1
2022-08-08T11:04:15.677Z,24.4
2022-08-08T11:10:37.956Z,24.5
2022-08-08T11:16:35.435Z,24.5
2022-08-08T11:22:31.250Z,24.8
2022-08-08T11:28:25.694Z,24.7
2022-08-08T11:35:42.440Z,24.8
2022-08-08T11:41:40.454Z,24.9
2022-08-08T11:47:39.427Z,25.2
2022-08-08T12:00:49.784Z,25.1
2022-08-08T12:07:06.011Z,25.6
2022-08-08T12:13:19.667Z,25.6
2022-08-08T13:46:40.973Z,26.7
2022-08-08T14:12:19.525Z,26.8
2022-08-08T14:18:35.269Z,27.2
2022-08-08T14:24:49.453Z,27.1
2022-08-08T14:30:51.801Z,27.1
2022-08-08T14:37:02.401Z,27.1
2022-08-08T14:49:51.718Z,27
2022-08-08T14:56:26.835Z,27
2022-08-08T15:02:30.841Z,27.3
2022-08-08T15:09:01.131Z,27.1
2022-08-08T15:14:53.704Z,27.1
2022-08-08T15:20:51.851Z,27.2
2022-08-08T15:26:58.059Z,27.3
2022-08-08T15:34:29.175Z,27.4
2022-08-08T15:40:30.238Z,27.1
2022-08-08T15:46:27.230Z,27.1
2022-08-08T15:52:40.888Z,27.4
2022-08-08T15:58:45.709Z,27.2
2022-08-08T16:04:38.578Z,27
2022-08-08T16:13:06.570Z,27.1
2022-08-08T16:19:56.772Z,27.3
2022-08-08T16:26:05.133Z,27
2022-08-08T16:32:24.140Z,27
2022-08-08T16:38:26.457Z,26.9
2022-08-08T16:44:54.073Z,26.8
2022-08-08T16:55:07.855Z,26.9
2022-08-08T17:01:54.797Z,26.9
2022-08-08T17:08:26.973Z,26.8
2022-08-08T17:14:19.251Z,26.8
2022-08-08T17:20:23.620Z,26.7
2022-08-08T17:26:29.165Z,26.7
2022-08-08T17:32:21.144Z,26.6
2022-08-08T17:43:21.369Z,26.5
2022-08-08T17:49:43.684Z,26.3
2022-08-08T17:56:04.595Z,26.2
2022-08-08T18:02:00.036Z,26.2
2022-08-08T18:08:24.285Z,26.1
2022-08-08T18:29:14.885Z,25.6
2022-08-08T18:35:22.634Z,25.4
2022-08-08T18:48:31.539Z,25.1
2022-08-08T18:54:59.034Z,25
2022-08-08T19:01:03.883Z,24.9
2022-08-08T19:08:23.871Z,24.7
2022-08-08T19:21:47.880Z,24.4
2022-08-08T19:27:52.975Z,24.3
2022-08-08T19:34:30.735Z,24.3
2022-08-08T19:40:36.875Z,24.1
2022-08-08T19:47:07.329Z,24
2022-08-08T19:53:22.237Z,23.8
2022-08-08T19:59:41.759Z,23.7
2022-08-08T20:06:13.321Z,23.6
2022-08-08T20:12:35.903Z,23.5
2022-08-08T20:20:47.154Z,23.5
2022-08-08T20:40:45.887Z,22.9
2022-08-08T20:47:13.840Z,22.8
2022-08-08T20:53:58.740Z,22.5
2022-08-08T21:00:37.037Z,22.1
2022-08-08T21:06:51.851Z,22.1
2022-08-08T21:13:44.136Z,22.1
2022-08-08T21:19:58.725Z,22.1
2022-08-08T21:25:54.904Z,21.8
2022-08-08T21:31:58.807Z,21.8
2022-08-08T21:38:19.562Z,21.6
2022-08-08T21:44:21.233Z,21.4
2022-08-08T21:50:27.205Z,21.3
2022-08-08T21:56:27.109Z,21.3
2022-08-08T22:02:34.608Z,21.2
2022-08-08T22:08:37.161Z,21.1
2022-08-08T22:14:36.921Z,21
2022-08-08T22:20:42.701Z,20.7
2022-08-08T22:27:01.014Z,20.5
2022-08-08T22:40:00.702Z,20.5
2022-08-08T22:46:02.267Z,20.3
2022-08-08T23:00:09.263Z,20.3
2022-08-08T23:06:08.562Z,20.1
2022-08-08T23:12:18.837Z,20.3
2022-08-08T23:18:43.662Z,19.7
2022-08-08T23:24:41.321Z,19.7
2022-08-08T23:30:45.939Z,19.7
2022-08-08T23:36:39.181Z,19.5
2022-08-08T23:42:30.414Z,19.6
2022-08-08T23:48:57.935Z,19.5
2022-08-08T23:55:14.815Z,19.5
